Time;durP1;ratioP1;P1;durP2;ratioP2;P2;SDS_P1;SDS_P2;PMS_P1;PMS_P2;Temp;Humidity;BMP_temperature;BMP_pressure;BME280_temperature;BME280_humidity;BME280_pressure;Samples;Min_cycle;Max_cycle;Signal;HPM_P1;HPM_P2
2022/04/07 00:04:39;;;;;;;3.80;2.63;;;;;;;;;;20920113;28;20052;-65
2022/04/07 00:14:41;;;;;;;4.63;2.40;;;;;;;;;;20919222;28;20513;-65
2022/04/07 00:24:43;;;;;;;5.47;2.72;;;;;;;;;;20917928;28;20487;-65
2022/04/07 00:34:46;;;;;;;3.28;2.58;;;;;;;;;;20899423;28;20080;-65
2022/04/07 00:44:48;;;;;;;8.02;2.65;;;;;;;;;;20916403;28;20139;-66
2022/04/07 00:54:50;;;;;;;3.95;2.45;;;;;;;;;;20917181;28;20053;-66
2022/04/07 01:04:52;;;;;;;4.03;2.90;;;;;;;;;;20915264;28;20049;-67
2022/04/07 01:14:55;;;;;;;5.80;2.78;;;;;;;;;;20914410;28;20136;-65
2022/04/07 01:24:58;;;;;;;7.68;4.15;;;;;;;;;;20913899;28;20052;-67
2022/04/07 01:35:01;;;;;;;5.50;2.78;;;;;;;;;;20913988;28;20513;-65
2022/04/07 01:45:05;;;;;;;3.63;2.50;;;;;;;;;;20896108;28;20390;-68
2022/04/07 01:55:09;;;;;;;6.10;3.00;;;;;;;;;;20912998;28;20049;-67
2022/04/07 02:05:13;;;;;;;6.70;3.00;;;;;;;;;;20895227;28;20116;-68
2022/04/07 02:15:17;;;;;;;7.07;3.63;;;;;;;;;;20911169;28;20053;-65
2022/04/07 02:25:27;;;;;;;5.53;2.88;;;;;;;;;;20911326;28;20056;-70
2022/04/07 02:35:50;;;;;;;6.15;2.72;;;;;;;;;;20910091;28;20049;-67
2022/04/07 02:46:00;;;;;;;4.72;3.35;;;;;;;;;;20919906;28;20095;-66
2022/04/07 02:56:05;;;;;;;6.47;2.40;;;;;;;;;;20924533;28;20132;-64
2022/04/07 03:06:09;;;;;;;5.25;2.88;;;;;;;;;;20924656;28;20498;-65
2022/04/07 03:16:16;;;;;;;6.00;2.50;;;;;;;;;;20923930;28;20467;-67
2022/04/07 03:26:19;;;;;;;9.45;3.05;;;;;;;;;;20923169;28;20049;-62
2022/04/07 03:36:22;;;;;;;6.82;3.00;;;;;;;;;;20922747;28;20628;-65
2022/04/07 03:46:25;;;;;;;7.75;2.80;;;;;;;;;;20920825;28;20057;-69
2022/04/07 03:56:28;;;;;;;7.53;3.40;;;;;;;;;;20919916;28;20444;-67
2022/04/07 04:06:30;;;;;;;6.18;3.10;;;;;;;;;;20919313;28;20093;-68
2022/04/07 04:16:34;;;;;;;8.40;3.33;;;;;;;;;;20918657;28;20056;-64
2022/04/07 04:26:40;;;;;;;9.32;3.60;;;;;;;;;;20917682;28;20049;-66
2022/04/07 04:36:43;;;;;;;10.27;3.95;;;;;;;;;;20916733;28;20384;-68
2022/04/07 04:46:45;;;;;;;6.10;3.58;;;;;;;;;;20916673;28;20135;-70
2022/04/07 04:56:47;;;;;;;7.43;4.18;;;;;;;;;;20915515;28;20059;-67
2022/04/07 05:06:49;;;;;;;7.85;3.72;;;;;;;;;;20914281;28;20394;-64
2022/04/07 05:16:51;;;;;;;7.80;4.55;;;;;;;;;;20913598;28;20083;-64
2022/04/07 05:26:53;;;;;;;10.27;4.32;;;;;;;;;;20914044;28;20049;-64
2022/04/07 05:36:55;;;;;;;9.52;4.15;;;;;;;;;;20912727;28;20049;-66
2022/04/07 05:46:57;;;;;;;6.72;4.43;;;;;;;;;;20912288;28;20052;-64
2022/04/07 05:56:59;;;;;;;10.73;6.28;;;;;;;;;;20912236;28;20041;-63
2022/04/07 06:07:01;;;;;;;10.18;5.15;;;;;;;;;;20911664;28;20140;-69
2022/04/07 06:17:04;;;;;;;11.43;5.03;;;;;;;;;;20897980;28;20419;-64
2022/04/07 06:27:06;;;;;;;13.00;6.30;;;;;;;;;;20928118;28;20467;-65
2022/04/07 06:37:08;;;;;;;12.93;5.20;;;;;;;;;;20925599;28;20049;-71
2022/04/07 06:47:10;;;;;;;12.05;6.78;;;;;;;;;;20925761;28;20128;-64
2022/04/07 06:57:12;;;;;;;14.48;5.90;;;;;;;;;;20924408;28;20081;-66
2022/04/07 07:07:16;;;;;;;13.23;6.25;;;;;;;;;;20924120;28;20057;-65
2022/04/07 07:17:19;;;;;;;13.15;7.15;;;;;;;;;;20924586;28;20094;-66
2022/04/07 07:27:21;;;;;;;15.10;6.57;;;;;;;;;;20922094;28;20053;-67
2022/04/07 07:37:23;;;;;;;11.68;5.70;;;;;;;;;;20921374;28;20057;-69
2022/04/07 07:47:25;;;;;;;10.82;5.05;;;;;;;;;;20919943;28;20049;-65
2022/04/07 07:57:30;;;;;;;13.37;6.00;;;;;;;;;;20920327;28;20049;-70
2022/04/07 08:07:38;;;;;;;15.75;6.32;;;;;;;;;;20920251;28;20810;-64
2022/04/07 08:17:40;;;;;;;12.95;6.22;;;;;;;;;;20919788;28;20049;-66
2022/04/07 08:27:45;;;;;;;15.27;6.70;;;;;;;;;;20900091;28;20099;-71
2022/04/07 08:37:46;;;;;;;11.23;6.50;;;;;;;;;;20917504;28;20053;-70
2022/04/07 08:47:48;;;;;;;10.65;5.60;;;;;;;;;;20916704;28;20049;-66
2022/04/07 08:57:51;;;;;;;9.65;4.82;;;;;;;;;;20915705;28;20080;-64
2022/04/07 09:07:57;;;;;;;13.57;5.55;;;;;;;;;;20914967;28;20049;-70
2022/04/07 09:18:01;;;;;;;8.85;4.43;;;;;;;;;;20914735;28;20106;-65
2022/04/07 09:28:03;;;;;;;;;;;;;;;;;;20914090;28;20468;-65
2022/04/07 09:38:05;;;;;;;;;;;;;;;;;;20912996;28;19925;-65
2022/04/07 09:48:08;;;;;;;;;;;;;;;;;;20912481;28;19920;-66
2022/04/07 09:58:11;;;;;;;;;;;;;;;;;;20911542;28;20015;-72
2022/04/07 10:08:14;;;;;;;;;;;;;;;;;;20919815;28;19968;-64
2022/04/07 10:18:15;;;;;;;;;;;;;;;;;;20911111;28;20007;-64
2022/04/07 10:28:19;;;;;;;;;;;;;;;;;;20911179;28;20347;-65
2022/04/07 10:38:21;;;;;;;;;;;;;;;;;;20910296;28;19920;-70
2022/04/07 10:48:26;;;;;;;;;;;;;;;;;;20926069;28;19931;-57
2022/04/07 10:58:27;;;;;;;;;;;;;;;;;;20978843;28;19998;-61
2022/04/07 11:08:30;;;;;;;;;;;;;;;;;;20967630;28;19927;-67
2022/04/07 11:18:32;;;;;;;;;;;;;;;;;;20942605;28;20278;-63
2022/04/07 11:28:37;;;;;;;;;;;;;;;;;;21005052;28;19928;-66
2022/04/07 11:38:39;;;;;;;;;;;;;;;;;;21004484;28;19927;-69
2022/04/07 11:48:40;;;;;;;;;;;;;;;;;;21003906;28;19920;-71
2022/04/07 11:58:42;;;;;;;;;;;;;;;;;;21002302;28;19920;-71
2022/04/07 12:08:44;;;;;;;;;;;;;;;;;;21001835;28;20289;-64
2022/04/07 12:18:47;;;;;;;;;;;;;;;;;;21001926;28;20374;-72
2022/04/07 12:28:50;;;;;;;;;;;;;;;;;;21001367;28;20436;-70
2022/04/07 12:38:52;;;;;;;;;;;;;;;;;;20999959;28;19920;-70
2022/04/07 12:48:54;;;;;;;;;;;;;;;;;;20998696;28;19921;-72
2022/04/07 12:58:55;;;;;;;;;;;;;;;;;;20999298;28;19920;-70
2022/04/07 13:08:57;;;;;;;;;;;;;;;;;;20998809;28;20328;-71
2022/04/07 13:18:59;;;;;;;;;;;;;;;;;;20997712;28;19920;-72
2022/04/07 13:29:01;;;;;;;;;;;;;;;;;;20995350;28;19974;-72
2022/04/07 13:39:03;;;;;;;;;;;;;;;;;;20995860;28;19931;-69
2022/04/07 13:49:05;;;;;;;;;;;;;;;;;;20995315;28;20385;-71
2022/04/07 13:59:07;;;;;;;;;;;;;;;;;;20994717;28;19985;-71
2022/04/07 14:09:12;;;;;;;;;;;;;;;;;;20976692;28;19975;-72
2022/04/07 14:19:14;;;;;;;;;;;;;;;;;;20994348;28;19920;-72
2022/04/07 14:29:17;;;;;;;;;;;;;;;;;;20994669;28;20393;-72
2022/04/07 14:39:19;;;;;;;;;;;;;;;;;;21000359;28;19991;-70
2022/04/07 14:49:21;;;;;;;;;;;;;;;;;;21008294;28;19924;-69
2022/04/07 14:59:23;;;;;;;;;;;;;;;;;;20989934;28;19931;-70
2022/04/07 15:09:27;;;;;;;;;;;;;;;;;;21008505;28;19921;-72
2022/04/07 15:19:29;;;;;;;;;;;;;;;;;;21006701;28;20370;-71
2022/04/07 15:29:31;;;;;;;;;;;;;;;;;;21006341;28;20275;-72
2022/04/07 15:39:33;;;;;;;;;;;;;;;;;;20998319;28;20320;-72
2022/04/07 15:49:36;;;;;;;;;;;;;;;;;;21003046;28;20392;-72
2022/04/07 15:59:38;;;;;;;;;;;;;;;;;;21003262;28;20018;-68
2022/04/07 16:09:40;;;;;;;;;;;;;;;;;;20934041;28;19921;-63
2022/04/07 16:19:42;;;;;;;;;;;;;;;;;;20918981;28;19927;-63
2022/04/07 16:29:44;;;;;;;;;;;;;;;;;;20917687;28;19927;-66
2022/04/07 16:39:47;;;;;;;;;;;;;;;;;;20919901;28;19927;-66
2022/04/07 16:49:50;;;;;;;;;;;;;;;;;;20915876;28;19974;-64
2022/04/07 16:59:53;;;;;;;;;;;;;;;;;;20938185;28;20019;-63
2022/04/07 17:09:55;;;;;;;;;;;;;;;;;;20901601;28;20333;-66
2022/04/07 17:19:57;;;;;;;;;;;;;;;;;;20971917;28;20396;-67
2022/04/07 17:29:59;;;;;;;;;;;;;;;;;;20996831;28;20010;-69
2022/04/07 17:40:01;;;;;;;;;;;;;;;;;;20997747;28;19927;-69
2022/04/07 17:50:03;;;;;;;;;;;;;;;;;;20995126;28;19924;-68
2022/04/07 18:00:04;;;;;;;;;;;;;;;;;;20995516;28;19928;-67
2022/04/07 18:10:08;;;;;;;;;;;;;;;;;;20978637;28;20281;-68
2022/04/07 18:20:14;;;;;;;;;;;;;;;;;;21010824;28;19981;-67
2022/04/07 18:30:16;;;;;;;;;;;;;;;;;;21011160;28;19978;-67
2022/04/07 18:40:18;;;;;;;;;;;;;;;;;;21009609;28;20366;-68
2022/04/07 18:50:21;;;;;;;;;;;;;;;;;;21009692;28;19920;-71
2022/04/07 19:00:29;;;;;;;;;;;;;;;;;;21009739;28;19942;-70
2022/04/07 19:10:31;;;;;;;;;;;;;;;;;;21007426;28;19920;-68
2022/04/07 19:20:33;;;;;;;;;;;;;;;;;;21007573;28;20105;-69
2022/04/07 19:30:35;;;;;;;;;;;;;;;;;;21005931;28;19920;-67
2022/04/07 19:40:37;;;;;;;;;;;;;;;;;;21006026;28;19924;-66
2022/04/07 19:50:39;;;;;;;;;;;;;;;;;;21004284;28;19920;-66
2022/04/07 20:00:41;;;;;;;;;;;;;;;;;;21003104;28;19926;-68
2022/04/07 20:10:43;;;;;;;;;;;;;;;;;;21002758;28;19920;-69
2022/04/07 20:20:45;;;;;;;;;;;;;;;;;;21002384;28;20373;-72
2022/04/07 20:30:47;;;;;;;;;;;;;;;;;;20982887;28;19927;-68
2022/04/07 20:40:49;;;;;;;;;;;;;;;;;;20999697;28;19981;-72
2022/04/07 20:50:51;;;;;;;;;;;;;;;;;;20999176;28;19978;-67
2022/04/07 21:00:53;;;;;;;;;;;;;;;;;;20998934;28;20311;-73
2022/04/07 21:10:55;;;;;;;;;;;;;;;;;;20998289;28;19920;-73
2022/04/07 21:20:57;;;;;;;;;;;;;;;;;;20997165;28;19928;-67
2022/04/07 21:30:59;;;;;;;;;;;;;;;;;;20996458;28;19942;-68
2022/04/07 21:41:01;;;;;;;;;;;;;;;;;;20996802;28;20413;-71
2022/04/07 21:51:03;;;;;;;;;;;;;;;;;;20995059;28;19924;-66
2022/04/07 22:01:07;;;;;;;;;;;;;;;;;;20995296;28;19920;-65
2022/04/07 22:11:10;;;;;;;;;;;;;;;;;;20994941;28;19974;-67
2022/04/07 22:21:12;;;;;;;;;;;;;;;;;;20976511;28;20293;-66
2022/04/07 22:31:14;;;;;;;;;;;;;;;;;;20993971;28;19924;-65
2022/04/07 22:41:16;;;;;;;;;;;;;;;;;;20975351;28;20010;-65
2022/04/07 22:51:18;;;;;;;;;;;;;;;;;;20992946;28;19927;-64
2022/04/07 23:01:20;;;;;;;;;;;;;;;;;;21000533;28;20362;-66
2022/04/07 23:11:22;;;;;;;;;;;;;;;;;;21008598;28;20297;-65
2022/04/07 23:21:24;;;;;;;;;;;;;;;;;;21006547;28;19983;-66
2022/04/07 23:31:27;;;;;;;;;;;;;;;;;;21005150;28;19928;-65
2022/04/07 23:41:29;;;;;;;;;;;;;;;;;;21004823;28;19921;-68
2022/04/07 23:51:32;;;;;;;;;;;;;;;;;;21004458;28;19924;-66
